Time;durP1;ratioP1;P1;durP2;ratioP2;P2;SDS_P1;SDS_P2;PMS_P1;PMS_P2;Temp;Humidity;BMP_temperature;BMP_pressure;BME280_temperature;BME280_humidity;BME280_pressure;Samples;Min_cycle;Max_cycle;Signal;HPM_P1;HPM_P2
2022/04/09 00:00:59;;;;;;;;;;;18.70;58.70;;;;;;5033144;28;1306;-75
2022/04/09 00:03:24;;;;;;;;;;;18.70;58.70;;;;;;5015603;28;1312;-75
2022/04/09 00:05:49;;;;;;;;;;;18.70;58.70;;;;;;5032456;28;1945;-73
2022/04/09 00:08:15;;;;;;;;;;;18.70;58.70;;;;;;5015262;28;1299;-73
2022/04/09 00:10:40;;;;;;;;;;;18.70;58.70;;;;;;5033216;28;1415;-73
2022/04/09 00:13:06;;;;;;;;;;;18.70;58.70;;;;;;5015088;22;996420;-67
2022/04/09 00:15:31;;;;;;;;;;;18.70;58.80;;;;;;4967835;28;1193;-68
2022/04/09 00:17:57;;;;;;;;;;;18.70;58.80;;;;;;5014381;28;1300;-67
2022/04/09 00:20:22;;;;;;;;;;;18.70;58.80;;;;;;5013712;28;1288;-68
2022/04/09 00:22:48;;;;;;;;;;;18.70;58.80;;;;;;5013852;28;1296;-67
2022/04/09 00:25:14;;;;;;;;;;;18.60;58.80;;;;;;4996274;28;1910;-67
2022/04/09 00:27:39;;;;;;;;;;;18.60;58.80;;;;;;5013938;28;1324;-67
2022/04/09 00:30:05;;;;;;;;;;;18.60;58.80;;;;;;5013717;28;1335;-67
2022/04/09 00:32:31;;;;;;;;;;;18.60;58.80;;;;;;4995966;28;1369;-67
2022/04/09 00:34:56;;;;;;;;;;;18.60;58.80;;;;;;5013412;28;1180;-67
2022/04/09 00:37:22;;;;;;;;;;;18.60;58.80;;;;;;4995850;28;1121;-67
2022/04/09 00:39:47;;;;;;;;;;;18.60;58.80;;;;;;4996013;28;1343;-67
2022/04/09 00:42:13;;;;;;;;;;;18.60;58.80;;;;;;5013977;28;1300;-67
2022/04/09 00:44:39;;;;;;;;;;;18.60;58.90;;;;;;4996014;28;1386;-67
2022/04/09 00:47:05;;;;;;;;;;;18.60;58.90;;;;;;5013257;28;1899;-67
2022/04/09 00:49:30;;;;;;;;;;;18.60;58.90;;;;;;4995871;28;1311;-67
2022/04/09 00:51:56;;;;;;;;;;;18.60;58.90;;;;;;4995895;28;1281;-67
2022/04/09 00:54:22;;;;;;;;;;;18.60;58.90;;;;;;5013249;28;1386;-67
2022/04/09 00:56:47;;;;;;;;;;;18.60;58.90;;;;;;4995830;28;1336;-67
2022/04/09 00:59:13;;;;;;;;;;;18.60;58.90;;;;;;4995829;28;1328;-67
2022/04/09 01:01:39;;;;;;;;;;;18.60;58.90;;;;;;4995885;28;1364;-67
2022/04/09 01:04:08;;;;;;;;;;;18.60;58.90;;;;;;5013037;28;1336;-67
2022/04/09 01:06:33;;;;;;;;;;;18.60;58.90;;;;;;5012940;28;1955;-67
2022/04/09 01:08:59;;;;;;;;;;;18.60;58.90;;;;;;5013508;28;1287;-67
2022/04/09 01:11:24;;;;;;;;;;;18.60;59.00;;;;;;5013189;28;1296;-67
2022/04/09 01:13:50;;;;;;;;;;;18.60;59.00;;;;;;5013076;28;1395;-68
2022/04/09 01:16:15;;;;;;;;;;;18.60;59.00;;;;;;4995397;28;1366;-68
2022/04/09 01:18:41;;;;;;;;;;;18.60;59.00;;;;;;5012926;28;1379;-67
2022/04/09 01:21:06;;;;;;;;;;;18.60;59.00;;;;;;5013073;28;1299;-67
2022/04/09 01:23:32;;;;;;;;;;;18.60;59.00;;;;;;5013163;28;1288;-68
2022/04/09 01:25:58;;;;;;;;;;;18.60;59.00;;;;;;4995384;28;2009;-67
2022/04/09 01:28:24;;;;;;;;;;;18.60;59.00;;;;;;5016364;28;1470;-67
2022/04/09 01:30:49;;;;;;;;;;;18.60;59.00;;;;;;5017212;28;1080;-68
2022/04/09 01:33:15;;;;;;;;;;;18.60;59.10;;;;;;4999373;28;1369;-68
2022/04/09 01:35:41;;;;;;;;;;;18.50;59.10;;;;;;5016880;28;1310;-67
2022/04/09 01:38:06;;;;;;;;;;;18.60;59.10;;;;;;4999434;28;1226;-67
2022/04/09 01:40:32;;;;;;;;;;;18.60;59.10;;;;;;5016849;28;1292;-67
2022/04/09 01:42:57;;;;;;;;;;;18.60;59.10;;;;;;5016895;28;1288;-67
2022/04/09 01:45:23;;;;;;;;;;;18.60;59.00;;;;;;4999465;28;1902;-67
2022/04/09 01:47:48;;;;;;;;;;;18.60;58.90;;;;;;5016441;28;1312;-69
2022/04/09 01:50:13;;;;;;;;;;;18.60;58.90;;;;;;4999073;28;1568;-69
2022/04/09 01:52:39;;;;;;;;;;;18.60;58.80;;;;;;4999500;28;1309;-69
2022/04/09 01:55:05;;;;;;;;;;;18.60;58.80;;;;;;4999304;28;1295;-69
2022/04/09 01:57:30;;;;;;;;;;;18.70;58.70;;;;;;4998792;28;1038;-69
2022/04/09 01:59:55;;;;;;;;;;;18.70;58.70;;;;;;4999076;28;1009;-69
2022/04/09 02:02:21;;;;;;;;;;;18.70;58.60;;;;;;5016409;28;1272;-69
2022/04/09 02:04:46;;;;;;;;;;;18.70;58.50;;;;;;5016281;28;1948;-69
2022/04/09 02:07:12;;;;;;;;;;;18.80;58.50;;;;;;5016380;28;1256;-68
2022/04/09 02:09:37;;;;;;;;;;;18.80;58.40;;;;;;5016512;28;1361;-68
2022/04/09 02:12:03;;;;;;;;;;;18.80;58.30;;;;;;5016524;28;1262;-69
2022/04/09 02:14:28;;;;;;;;;;;18.80;58.30;;;;;;4998629;28;1539;-68
2022/04/09 02:16:54;;;;;;;;;;;18.80;58.30;;;;;;5016030;28;1345;-69
2022/04/09 02:19:19;;;;;;;;;;;18.80;58.20;;;;;;5016187;28;1362;-69
2022/04/09 02:21:45;;;;;;;;;;;18.80;58.20;;;;;;5016136;28;1310;-69
2022/04/09 02:24:10;;;;;;;;;;;18.90;58.20;;;;;;5016192;28;1365;-68
2022/04/09 02:26:36;;;;;;;;;;;18.90;58.20;;;;;;5017224;28;1890;-67
2022/04/09 02:29:01;;;;;;;;;;;18.90;58.20;;;;;;5026220;28;1659;-67
2022/04/09 02:31:26;;;;;;;;;;;18.90;58.10;;;;;;5026145;28;1165;-67
2022/04/09 02:33:53;;;;;;;;;;;18.90;58.00;;;;;;5025129;28;1253;-67
2022/04/09 02:36:19;;;;;;;;;;;18.90;58.00;;;;;;5020911;28;1821;-68
2022/04/09 02:38:45;;;;;;;;;;;18.90;58.00;;;;;;5004829;28;1617;-69
2022/04/09 02:41:10;;;;;;;;;;;18.90;58.00;;;;;;5025607;28;1334;-68
2022/04/09 02:43:36;;;;;;;;;;;18.90;57.90;;;;;;5023847;28;1317;-68
2022/04/09 02:46:01;;;;;;;;;;;19.00;58.00;;;;;;5022633;28;1902;-68
2022/04/09 02:48:27;;;;;;;;;;;18.90;57.90;;;;;;5029036;28;1758;-68
2022/04/09 02:50:52;;;;;;;;;;;18.90;57.90;;;;;;5016681;28;1433;-67
2022/04/09 02:53:18;;;;;;;;;;;19.00;57.90;;;;;;5025948;28;1470;-68
2022/04/09 02:55:43;;;;;;;;;;;18.90;57.80;;;;;;5024095;28;1384;-69
2022/04/09 02:58:09;;;;;;;;;;;19.00;57.90;;;;;;5012714;28;2374;-69
2022/04/09 03:00:34;;;;;;;;;;;19.00;57.90;;;;;;5014818;28;1916;-69
2022/04/09 03:03:00;;;;;;;;;;;19.00;57.80;;;;;;5015340;28;1411;-68
2022/04/09 03:05:25;;;;;;;;;;;19.00;57.80;;;;;;5015541;28;1886;-68
2022/04/09 03:07:51;;;;;;;;;;;19.00;57.80;;;;;;5015186;28;1310;-69
2022/04/09 03:10:16;;;;;;;;;;;19.00;57.80;;;;;;4997665;28;1308;-68
2022/04/09 03:12:43;;;;;;;;;;;19.00;57.80;;;;;;4997812;28;1283;-68
2022/04/09 03:15:08;;;;;;;;;;;19.00;57.80;;;;;;5015120;28;1112;-68
2022/04/09 03:17:33;;;;;;;;;;;19.00;57.80;;;;;;4997200;28;1057;-68
2022/04/09 03:19:59;;;;;;;;;;;19.00;57.70;;;;;;5015103;28;1261;-68
2022/04/09 03:22:24;;;;;;;;;;;19.00;57.70;;;;;;5014946;28;1377;-68
2022/04/09 03:24:50;;;;;;;;;;;19.00;57.70;;;;;;4997568;28;1969;-68
2022/04/09 03:27:15;;;;;;;;;;;19.00;57.70;;;;;;5014718;28;1401;-68
2022/04/09 03:29:41;;;;;;;;;;;19.00;57.70;;;;;;5014784;28;1554;-68
2022/04/09 03:32:07;;;;;;;;;;;19.00;57.70;;;;;;5014629;28;1352;-68
2022/04/09 03:34:33;;;;;;;;;;;19.00;57.70;;;;;;4997172;28;1480;-68
2022/04/09 03:36:58;;;;;;;;;;;19.00;57.70;;;;;;5010589;28;1328;-67
2022/04/09 03:39:23;;;;;;;;;;;19.00;57.70;;;;;;4997264;28;1135;-68
2022/04/09 03:41:49;;;;;;;;;;;19.00;57.70;;;;;;4997224;28;1362;-67
2022/04/09 03:44:14;;;;;;;;;;;19.00;57.70;;;;;;5014661;28;1294;-68
2022/04/09 03:46:40;;;;;;;;;;;19.00;57.70;;;;;;5014144;28;1910;-68
2022/04/09 03:49:05;;;;;;;;;;;19.00;57.60;;;;;;5014191;28;1251;-68
2022/04/09 03:51:31;;;;;;;;;;;19.00;57.60;;;;;;5014066;28;1265;-68
2022/04/09 03:53:56;;;;;;;;;;;19.00;57.60;;;;;;5014457;28;1371;-67
2022/04/09 03:56:22;;;;;;;;;;;19.00;57.60;;;;;;4996682;28;1192;-67
2022/04/09 03:58:49;;;;;;;;;;;19.00;57.60;;;;;;4997116;28;1098;-67
2022/04/09 04:01:14;;;;;;;;;;;19.00;57.60;;;;;;5014196;28;1084;-68
2022/04/09 04:03:40;;;;;;;;;;;19.00;57.60;;;;;;5014355;28;1359;-68
2022/04/09 04:06:06;;;;;;;;;;;19.00;57.60;;;;;;5013849;28;1906;-68
2022/04/09 04:08:31;;;;;;;;;;;19.10;57.60;;;;;;5014327;28;1065;-68
2022/04/09 04:10:56;;;;;;;;;;;19.00;57.60;;;;;;5014066;28;1454;-67
2022/04/09 04:13:22;;;;;;;;;;;19.00;57.60;;;;;;5014123;28;1264;-68
2022/04/09 04:15:47;;;;;;;;;;;19.00;57.60;;;;;;5013749;28;1363;-68
2022/04/09 04:18:13;;;;;;;;;;;19.00;58.20;;;;;;5014064;28;1257;-68
2022/04/09 04:20:38;;;;;;;;;;;19.10;57.60;;;;;;5013872;28;1100;-68
2022/04/09 04:23:04;;;;;;;;;;;19.10;57.60;;;;;;4996425;28;1318;-68
2022/04/09 04:25:29;;;;;;;;;;;19.10;57.60;;;;;;5013746;28;1910;-67
2022/04/09 04:27:54;;;;;;;;;;;19.10;57.60;;;;;;4996230;28;1438;-68
2022/04/09 04:30:20;;;;;;;;;;;19.00;57.60;;;;;;5013483;28;1385;-68
2022/04/09 04:32:45;;;;;;;;;;;19.10;57.60;;;;;;5013753;28;1377;-68
2022/04/09 04:35:11;;;;;;;;;;;19.10;57.60;;;;;;4996470;28;1408;-68
2022/04/09 04:37:36;;;;;;;;;;;19.10;57.60;;;;;;4995848;28;1449;-68
2022/04/09 04:40:02;;;;;;;;;;;19.10;57.60;;;;;;5013647;28;1386;-67
2022/04/09 04:42:27;;;;;;;;;;;19.10;57.60;;;;;;5013615;28;1271;-68
2022/04/09 04:44:53;;;;;;;;;;;19.10;57.60;;;;;;5013324;28;1970;-68
2022/04/09 04:47:18;;;;;;;;;;;19.10;57.60;;;;;;5013376;28;1128;-67
2022/04/09 04:49:44;;;;;;;;;;;19.10;57.60;;;;;;4995988;28;1380;-68
2022/04/09 04:52:09;;;;;;;;;;;19.10;57.60;;;;;;5013530;28;1297;-68
2022/04/09 04:54:36;;;;;;;;;;;19.10;57.60;;;;;;5013267;28;1196;-68
2022/04/09 04:57:02;;;;;;;;;;;19.10;57.60;;;;;;5013382;28;1069;-68
2022/04/09 04:59:27;;;;;;;;;;;19.10;57.60;;;;;;5013371;28;1064;-69
2022/04/09 05:01:52;;;;;;;;;;;19.10;57.60;;;;;;4995658;28;1128;-68
2022/04/09 05:04:18;;;;;;;;;;;19.10;57.60;;;;;;5013263;28;1441;-68
2022/04/09 05:06:45;;;;;;;;;;;19.10;57.60;;;;;;4975940;28;1907;-68
2022/04/09 05:09:10;;;;;;;;;;;19.10;57.60;;;;;;5009144;28;1335;-68
2022/04/09 05:11:36;;;;;;;;;;;19.10;57.60;;;;;;5010591;28;1473;-68
2022/04/09 05:14:03;;;;;;;;;;;19.10;57.60;;;;;;4997280;28;1823;-66
2022/04/09 05:16:29;;;;;;;;;;;19.10;57.50;;;;;;5003763;28;2009;-68
2022/04/09 05:18:54;;;;;;;;;;;19.10;57.50;;;;;;5000488;28;1235;-68
2022/04/09 05:21:20;;;;;;;;;;;19.10;57.50;;;;;;5011944;28;1186;-68
2022/04/09 05:23:45;;;;;;;;;;;19.10;57.50;;;;;;5012408;28;1317;-69
2022/04/09 05:26:10;;;;;;;;;;;19.10;57.50;;;;;;5011747;28;1973;-68
2022/04/09 05:28:36;;;;;;;;;;;19.10;57.50;;;;;;5011962;28;1414;-65
2022/04/09 05:31:02;;;;;;;;;;;19.10;57.50;;;;;;5011948;28;1125;-67
2022/04/09 05:33:28;;;;;;;;;;;19.10;57.60;;;;;;5012007;28;1302;-67
2022/04/09 05:35:54;;;;;;;;;;;19.10;57.50;;;;;;5011844;28;1065;-68
2022/04/09 05:38:20;;;;;;;;;;;19.10;57.50;;;;;;5011960;28;1056;-66
2022/04/09 05:40:45;;;;;;;;;;;19.10;57.50;;;;;;4978702;28;1692;-67
2022/04/09 05:43:11;;;;;;;;;;;19.10;57.50;;;;;;5008393;28;1292;-70
2022/04/09 05:45:37;;;;;;;;;;;19.10;57.60;;;;;;5010946;28;1970;-68
2022/04/09 05:48:03;;;;;;;;;;;19.10;57.60;;;;;;4976313;28;1351;-66
2022/04/09 05:50:29;;;;;;;;;;;19.10;57.50;;;;;;5011751;28;1419;-64
2022/04/09 05:52:54;;;;;;;;;;;19.10;57.60;;;;;;5011466;28;1295;-64
2022/04/09 05:55:20;;;;;;;;;;;19.10;57.50;;;;;;5007721;28;1427;-68
2022/04/09 05:57:45;;;;;;;;;;;19.10;57.50;;;;;;4993215;28;1318;-68
2022/04/09 06:00:11;;;;;;;;;;;19.10;57.50;;;;;;4994249;28;1297;-66
2022/04/09 06:02:39;;;;;;;;;;;19.10;57.50;;;;;;5011763;28;1307;-68
2022/04/09 06:05:05;;;;;;;;;;;19.10;57.50;;;;;;5011765;28;1968;-68
2022/04/09 06:07:30;;;;;;;;;;;19.10;57.50;;;;;;4994117;28;949;-70
2022/04/09 06:09:56;;;;;;;;;;;19.10;57.50;;;;;;5002648;28;1255;-69
2022/04/09 06:12:21;;;;;;;;;;;19.10;57.50;;;;;;5007072;28;1668;-69
2022/04/09 06:14:47;;;;;;;;;;;19.10;57.50;;;;;;5015263;28;1278;-68
2022/04/09 06:17:12;;;;;;;;;;;19.10;57.50;;;;;;4997611;28;1275;-71
2022/04/09 06:19:38;;;;;;;;;;;19.10;57.50;;;;;;5015218;28;1249;-68
2022/04/09 06:22:04;;;;;;;;;;;19.10;57.50;;;;;;5015122;28;1398;-68
2022/04/09 06:24:29;;;;;;;;;;;19.10;58.10;;;;;;4997911;28;1374;-68
2022/04/09 06:26:54;;;;;;;;;;;19.10;57.50;;;;;;5025726;28;1903;-68
2022/04/09 06:29:20;;;;;;;;;;;19.10;57.40;;;;;;5015361;28;1793;-68
2022/04/09 06:31:47;;;;;;;;;;;19.10;57.40;;;;;;4997833;28;1358;-69
2022/04/09 06:34:16;;;;;;;;;;;19.10;57.40;;;;;;5015188;28;1312;-68
2022/04/09 06:36:41;;;;;;;;;;;19.10;57.40;;;;;;5010771;28;1112;-69
2022/04/09 06:39:06;;;;;;;;;;;19.10;57.40;;;;;;5014920;28;1254;-69
2022/04/09 06:41:33;;;;;;;;;;;19.10;57.70;;;;;;5014580;28;1312;-69
2022/04/09 06:43:59;;;;;;;;;;;19.10;57.50;;;;;;5014881;28;1283;-70
2022/04/09 06:46:24;;;;;;;;;;;19.10;57.50;;;;;;5014384;28;1960;-70
2022/04/09 06:48:50;;;;;;;;;;;19.10;57.50;;;;;;5014940;28;1204;-70
2022/04/09 06:51:16;;;;;;;;;;;19.10;57.50;;;;;;5014685;28;1198;-68
2022/04/09 06:53:41;;;;;;;;;;;19.10;57.50;;;;;;5014316;28;1315;-70
2022/04/09 06:56:07;;;;;;;;;;;19.10;57.40;;;;;;4996695;28;1306;-69
2022/04/09 06:58:33;;;;;;;;;;;19.20;57.40;;;;;;5014134;28;1223;-68
2022/04/09 07:00:59;;;;;;;;;;;19.20;57.20;;;;;;5014230;28;1275;-71
2022/04/09 07:03:25;;;;;;;;;;;19.30;57.10;;;;;;5015507;28;1305;-69
2022/04/09 07:05:50;;;;;;;;;;;19.40;57.00;;;;;;5015014;28;1902;-70
2022/04/09 07:08:16;;;;;;;;;;;19.50;56.90;;;;;;5015265;28;1296;-70
2022/04/09 07:10:41;;;;;;;;;;;19.60;56.60;;;;;;5014906;28;1300;-70
2022/04/09 07:13:07;;;;;;;;;;;19.80;56.50;;;;;;5014861;28;1338;-69
2022/04/09 07:15:32;;;;;;;;;;;19.90;56.20;;;;;;5014964;28;1354;-69
2022/04/09 07:17:58;;;;;;;;;;;19.90;56.00;;;;;;5015186;28;1271;-69
2022/04/09 07:20:23;;;;;;;;;;;20.00;55.80;;;;;;5015068;28;1115;-69
2022/04/09 07:22:49;;;;;;;;;;;20.10;55.60;;;;;;5015058;28;1292;-69
2022/04/09 07:25:16;;;;;;;;;;;20.20;55.40;;;;;;5013753;28;1911;-69
2022/04/09 07:27:43;;;;;;;;;;;20.20;55.30;;;;;;4997102;28;1433;-69
2022/04/09 07:30:09;;;;;;;;;;;20.30;55.20;;;;;;5014912;28;1169;-69
2022/04/09 07:32:35;;;;;;;;;;;20.30;55.00;;;;;;4997462;28;1289;-69
2022/04/09 07:35:01;;;;;;;;;;;20.40;55.00;;;;;;5014954;28;1294;-69
2022/04/09 07:37:26;;;;;;;;;;;20.40;54.90;;;;;;4996986;28;1192;-69
2022/04/09 07:39:52;;;;;;;;;;;20.40;54.80;;;;;;5014995;28;1102;-69
2022/04/09 07:42:18;;;;;;;;;;;20.50;54.90;;;;;;4997283;28;1363;-69
2022/04/09 07:44:43;;;;;;;;;;;20.50;54.80;;;;;;4997099;28;1393;-69
2022/04/09 07:47:09;;;;;;;;;;;20.50;54.80;;;;;;5014330;28;1882;-69
2022/04/09 07:49:34;;;;;;;;;;;20.50;54.70;;;;;;5014602;28;1339;-69
2022/04/09 07:52:00;;;;;;;;;;;20.50;54.60;;;;;;5014451;28;1259;-69
2022/04/09 07:54:26;;;;;;;;;;;20.50;54.70;;;;;;5014284;28;1205;-69
2022/04/09 07:56:52;;;;;;;;;;;20.50;54.70;;;;;;5014316;28;1115;-69
2022/04/09 07:59:17;;;;;;;;;;;20.50;54.70;;;;;;4996890;28;1297;-69
2022/04/09 08:01:43;;;;;;;;;;;20.40;54.70;;;;;;5014430;28;1005;-69
2022/04/09 08:04:08;;;;;;;;;;;20.40;54.70;;;;;;5014200;28;1319;-69
2022/04/09 08:06:34;;;;;;;;;;;20.40;54.80;;;;;;5014068;28;1894;-69
2022/04/09 08:08:59;;;;;;;;;;;20.40;54.80;;;;;;5014035;28;1143;-69
2022/04/09 08:11:26;;;;;;;;;;;20.40;54.90;;;;;;5014234;28;1269;-69
2022/04/09 08:13:51;;;;;;;;;;;20.40;54.90;;;;;;5013937;28;1268;-69
2022/04/09 08:16:17;;;;;;;;;;;20.40;55.00;;;;;;5013821;28;1285;-69
2022/04/09 08:18:42;;;;;;;;;;;20.30;55.00;;;;;;5014040;28;1100;-69
2022/04/09 08:21:08;;;;;;;;;;;20.30;55.00;;;;;;4996399;28;1299;-69
2022/04/09 08:23:33;;;;;;;;;;;20.30;55.00;;;;;;5013801;28;1457;-69
2022/04/09 08:26:00;;;;;;;;;;;20.30;55.10;;;;;;5013382;28;1960;-69
2022/04/09 08:28:27;;;;;;;;;;;20.30;55.20;;;;;;5013824;28;1335;-69
2022/04/09 08:30:53;;;;;;;;;;;20.30;55.20;;;;;;5013848;28;1072;-69
2022/04/09 08:33:19;;;;;;;;;;;20.30;55.30;;;;;;5014009;28;1558;-69
2022/04/09 08:35:44;;;;;;;;;;;20.20;55.80;;;;;;5013152;28;1277;-69
2022/04/09 08:38:10;;;;;;;;;;;20.30;55.30;;;;;;5013997;28;1276;-69
2022/04/09 08:40:36;;;;;;;;;;;20.20;55.30;;;;;;5013531;28;1117;-69
2022/04/09 08:43:01;;;;;;;;;;;20.20;55.40;;;;;;5013686;28;1321;-69
2022/04/09 08:45:26;;;;;;;;;;;20.20;55.40;;;;;;5013477;28;1895;-69
2022/04/09 08:47:52;;;;;;;;;;;20.20;55.40;;;;;;4995875;28;1112;-69
2022/04/09 08:50:17;;;;;;;;;;;20.20;55.50;;;;;;4996445;28;1431;-69
2022/04/09 08:52:44;;;;;;;;;;;20.20;55.50;;;;;;4977463;28;1361;-69
2022/04/09 08:55:12;;;;;;;;;;;20.20;55.60;;;;;;4989440;28;1931;-69
2022/04/09 08:57:38;;;;;;;;;;;20.10;55.60;;;;;;4996256;28;1139;-69
2022/04/09 09:00:07;;;;;;;;;;;20.10;55.60;;;;;;5013143;28;1286;-69
2022/04/09 09:02:35;;;;;;;;;;;20.10;55.60;;;;;;4999756;28;1331;-69
2022/04/09 09:05:00;;;;;;;;;;;20.10;55.70;;;;;;5013164;28;1955;-69
2022/04/09 09:07:25;;;;;;;;;;;20.10;55.70;;;;;;5012618;28;1417;-69
2022/04/09 09:09:51;;;;;;;;;;;20.10;55.70;;;;;;5013217;28;1260;-69
2022/04/09 09:12:27;;;;;;;;;;;20.10;55.80;;;;;;4995871;28;1143;-69
2022/04/09 09:14:52;;;;;;;;;;;20.10;55.80;;;;;;5011824;28;1879;-68
2022/04/09 09:17:24;;;;;;;;;;;20.10;55.90;;;;;;5005705;28;1925;-68
2022/04/09 09:19:50;;;;;;;;;;;20.00;55.80;;;;;;5007528;28;1124;-68
2022/04/09 09:22:15;;;;;;;;;;;20.00;55.90;;;;;;5009019;28;1345;-68
2022/04/09 09:24:41;;;;;;;;;;;20.00;55.90;;;;;;5003519;28;2278;-68
2022/04/09 09:27:06;;;;;;;;;;;20.00;55.90;;;;;;5006353;28;1902;-68
2022/04/09 09:29:33;;;;;;;;;;;20.00;56.00;;;;;;4996361;28;1351;-68
2022/04/09 09:31:59;;;;;;;;;;;20.00;56.00;;;;;;4995520;28;1146;-68
2022/04/09 09:34:24;;;;;;;;;;;19.90;56.00;;;;;;4979109;28;1412;-68
2022/04/09 09:36:50;;;;;;;;;;;19.90;56.10;;;;;;5008904;28;1332;-68
2022/04/09 09:39:16;;;;;;;;;;;19.90;56.10;;;;;;4995504;28;1359;-68
2022/04/09 09:41:48;;;;;;;;;;;19.90;56.10;;;;;;4995269;28;1153;-68
2022/04/09 09:44:13;;;;;;;;;;;19.90;56.10;;;;;;5013408;28;1289;-68
2022/04/09 09:46:38;;;;;;;;;;;19.90;56.20;;;;;;4994920;28;1958;-68
2022/04/09 09:49:04;;;;;;;;;;;19.90;56.20;;;;;;5015469;28;1060;-68
2022/04/09 09:51:29;;;;;;;;;;;19.90;56.20;;;;;;5016931;28;1325;-68
2022/04/09 09:54:05;;;;;;;;;;;19.90;56.20;;;;;;5016636;28;1283;-68
2022/04/09 09:56:35;;;;;;;;;;;19.90;56.30;;;;;;5016648;28;1350;-68
2022/04/09 09:59:01;;;;;;;;;;;19.90;56.30;;;;;;5016695;28;1261;-68
2022/04/09 10:01:27;;;;;;;;;;;19.90;56.30;;;;;;4999318;28;1330;-68
2022/04/09 10:03:53;;;;;;;;;;;19.80;56.30;;;;;;5016630;28;1280;-68
2022/04/09 10:06:18;;;;;;;;;;;19.90;56.30;;;;;;5016225;28;1899;-68
2022/04/09 10:08:44;;;;;;;;;;;19.80;56.30;;;;;;5016548;28;1221;-68
2022/04/09 10:11:09;;;;;;;;;;;19.90;56.30;;;;;;5016524;28;1274;-68
2022/04/09 10:13:35;;;;;;;;;;;19.90;56.30;;;;;;4998887;28;1346;-68
2022/04/09 10:16:00;;;;;;;;;;;19.90;56.30;;;;;;4998441;28;1399;-68
2022/04/09 10:18:25;;;;;;;;;;;19.90;56.20;;;;;;4998753;28;1355;-68
2022/04/09 10:20:59;;;;;;;;;;;19.90;56.20;;;;;;4998588;28;1350;-68
2022/04/09 10:23:24;;;;;;;;;;;19.90;56.10;;;;;;4998858;28;1289;-68
2022/04/09 10:25:53;;;;;;;;;;;19.90;56.10;;;;;;4998419;28;1914;-68
2022/04/09 10:28:31;;;;;;;;;;;19.90;56.10;;;;;;5013295;28;1924;-68
2022/04/09 10:30:57;;;;;;;;;;;20.00;56.10;;;;;;5002353;28;2222;-70
2022/04/09 10:33:23;;;;;;;;;;;20.00;56.10;;;;;;5015839;28;1353;-69
2022/04/09 10:35:49;;;;;;;;;;;20.00;56.10;;;;;;4995062;28;1188;-70
2022/04/09 10:38:18;;;;;;;;;;;20.00;56.10;;;;;;5015886;28;1140;-69
2022/04/09 10:40:43;;;;;;;;;;;19.90;56.00;;;;;;4998410;28;1399;-70
2022/04/09 10:43:21;;;;;;;;;;;20.00;56.10;;;;;;5015643;28;1352;-70
2022/04/09 10:46:15;;;;;;;;;;;20.00;56.10;;;;;;5015588;28;1895;-69
2022/04/09 10:48:42;;;;;;;;;;;20.00;56.10;;;;;;5015926;28;1206;-69
2022/04/09 10:51:11;;;;;;;;;;;20.00;56.10;;;;;;5015910;28;1337;-69
2022/04/09 10:53:49;;;;;;;;;;;19.90;56.10;;;;;;5015441;28;1287;-69
2022/04/09 10:56:15;;;;;;;;;;;19.90;56.10;;;;;;5015248;28;1352;-68
2022/04/09 10:59:00;;;;;;;;;;;19.90;56.10;;;;;;4997853;28;1284;-69
2022/04/09 11:01:46;;;;;;;;;;;19.90;56.10;;;;;;5015937;28;1399;-69
2022/04/09 11:04:34;;;;;;;;;;;19.90;56.10;;;;;;5015259;28;1378;-68
2022/04/09 11:07:18;;;;;;;;;;;19.90;56.20;;;;;;5014985;28;1898;-69
2022/04/09 11:09:51;;;;;;;;;;;19.90;56.20;;;;;;5015356;28;1300;-70
2022/04/09 11:12:26;;;;;;;;;;;19.90;56.20;;;;;;5015018;28;1312;-69
2022/04/09 11:14:55;;;;;;;;;;;19.90;56.20;;;;;;5015299;28;1060;-69
2022/04/09 11:17:28;;;;;;;;;;;19.90;56.20;;;;;;5011522;28;2842;-69
2022/04/09 11:19:54;;;;;;;;;;;19.90;56.30;;;;;;5002154;28;2029;-66
2022/04/09 11:22:19;;;;;;;;;;;19.90;56.30;;;;;;5004292;28;977;-72
2022/04/09 11:24:44;;;;;;;;;;;19.90;56.30;;;;;;4995076;28;1281;-68
2022/04/09 11:27:13;;;;;;;;;;;19.90;56.30;;;;;;5012721;28;1955;-67
2022/04/09 11:29:39;;;;;;;;;;;19.90;56.30;;;;;;5014200;28;880;-68
2022/04/09 11:32:05;;;;;;;;;;;19.80;56.30;;;;;;5014189;28;898;-65
2022/04/09 11:34:49;;;;;;;;;;;19.80;56.40;;;;;;5014047;28;1179;-69
2022/04/09 11:37:15;;;;;;;;;;;19.80;56.40;;;;;;5013702;28;1116;-70
2022/04/09 11:39:40;;;;;;;;;;;19.80;56.30;;;;;;5014065;28;1024;-68
2022/04/09 11:42:06;;;;;;;;;;;19.90;56.40;;;;;;4996407;28;1065;-69
2022/04/09 11:44:32;;;;;;;;;;;19.90;56.30;;;;;;5014449;28;1292;-70
2022/04/09 11:46:58;;;;;;;;;;;19.90;56.30;;;;;;5010758;28;1906;-69
2022/04/09 11:49:33;;;;;;;;;;;19.90;56.30;;;;;;4996927;28;852;-70
2022/04/09 11:51:58;;;;;;;;;;;19.90;56.30;;;;;;5014648;28;1085;-70
2022/04/09 11:54:25;;;;;;;;;;;19.90;56.20;;;;;;5014488;28;1197;-70
2022/04/09 11:56:50;;;;;;;;;;;19.90;56.20;;;;;;5014312;28;839;-70
2022/04/09 11:59:16;;;;;;;;;;;19.90;56.20;;;;;;5010973;28;2277;-69
2022/04/09 12:01:47;;;;;;;;;;;19.90;56.20;;;;;;5002584;28;1119;-69
2022/04/09 12:04:13;;;;;;;;;;;19.90;56.20;;;;;;5011932;28;1326;-69
2022/04/09 12:06:39;;;;;;;;;;;19.90;56.20;;;;;;5010745;28;1985;-68
2022/04/09 12:09:04;;;;;;;;;;;19.90;56.20;;;;;;5014278;28;888;-69
2022/04/09 12:11:29;;;;;;;;;;;19.90;56.20;;;;;;5012404;28;808;-68
2022/04/09 12:13:55;;;;;;;;;;;19.90;56.20;;;;;;5014189;28;1196;-68
2022/04/09 12:16:20;;;;;;;;;;;19.90;56.30;;;;;;5012562;28;1481;-69
2022/04/09 12:18:46;;;;;;;;;;;19.90;56.30;;;;;;5014313;28;876;-69
2022/04/09 12:21:25;;;;;;;;;;;19.90;56.30;;;;;;5012553;28;1162;-68
2022/04/09 12:24:05;;;;;;;;;;;19.90;56.30;;;;;;4996671;28;1347;-68
2022/04/09 12:26:34;;;;;;;;;;;19.90;56.30;;;;;;5013723;28;1906;-68
2022/04/09 12:29:06;;;;;;;;;;;19.90;56.30;;;;;;5014200;28;970;-68
2022/04/09 12:31:32;;;;;;;;;;;19.90;56.30;;;;;;5013698;28;800;-68
2022/04/09 12:33:57;;;;;;;;;;;19.90;56.30;;;;;;4996463;28;1329;-68
2022/04/09 12:36:23;;;;;;;;;;;19.90;56.30;;;;;;4995810;28;1199;-68
2022/04/09 12:38:48;;;;;;;;;;;19.90;56.30;;;;;;5014219;28;777;-68
2022/04/09 12:41:14;;;;;;;;;;;19.90;56.40;;;;;;5012853;28;2456;-68
2022/04/09 12:43:41;;;;;;;;;;;19.90;56.40;;;;;;5014018;28;1340;-68
2022/04/09 12:46:11;;;;;;;;;;;19.80;56.30;;;;;;5013297;28;1975;-68
2022/04/09 12:48:46;;;;;;;;;;;19.80;56.40;;;;;;5013688;28;793;-68
2022/04/09 12:51:13;;;;;;;;;;;19.80;56.40;;;;;;5013858;28;816;-69
2022/04/09 12:53:39;;;;;;;;;;;19.80;56.40;;;;;;4996126;28;1244;-68
2022/04/09 12:56:05;;;;;;;;;;;19.80;56.40;;;;;;5013340;28;816;-68
2022/04/09 12:58:31;;;;;;;;;;;19.80;56.40;;;;;;4995624;28;1153;-69
2022/04/09 13:00:56;;;;;;;;;;;19.80;56.40;;;;;;5013618;28;836;-69
2022/04/09 13:03:22;;;;;;;;;;;19.80;56.40;;;;;;5014053;28;1276;-68
2022/04/09 13:05:47;;;;;;;;;;;19.80;56.50;;;;;;5013471;28;1894;-69
2022/04/09 13:08:12;;;;;;;;;;;19.80;56.50;;;;;;5013276;28;883;-69
2022/04/09 13:10:38;;;;;;;;;;;19.80;56.50;;;;;;5013336;28;891;-69
2022/04/09 13:13:04;;;;;;;;;;;19.80;56.50;;;;;;5012997;28;1199;-69
2022/04/09 13:15:31;;;;;;;;;;;19.80;56.60;;;;;;4995892;28;929;-69
2022/04/09 13:17:56;;;;;;;;;;;19.80;56.50;;;;;;4995763;28;712;-68
2022/04/09 13:20:22;;;;;;;;;;;19.70;56.50;;;;;;4995964;28;1069;-68
2022/04/09 13:22:47;;;;;;;;;;;19.70;56.50;;;;;;5011934;28;1272;-68
2022/04/09 13:25:15;;;;;;;;;;;19.70;56.60;;;;;;5013307;28;1906;-68
2022/04/09 13:27:44;;;;;;;;;;;19.80;56.60;;;;;;5012643;28;812;-68
2022/04/09 13:30:10;;;;;;;;;;;19.70;56.60;;;;;;5013305;28;860;-68
2022/04/09 13:32:35;;;;;;;;;;;19.70;56.60;;;;;;5012832;28;1205;-68
2022/04/09 13:35:01;;;;;;;;;;;19.70;56.60;;;;;;4995405;28;2060;-68
2022/04/09 13:37:26;;;;;;;;;;;19.70;56.60;;;;;;4995127;28;1167;-68
2022/04/09 13:39:52;;;;;;;;;;;19.70;56.70;;;;;;5013093;28;1050;-68
2022/04/09 13:42:17;;;;;;;;;;;19.70;56.70;;;;;;5012723;28;1014;-68
2022/04/09 13:44:45;;;;;;;;;;;19.70;56.70;;;;;;5013246;28;1255;-68
2022/04/09 13:47:12;;;;;;;;;;;19.70;56.70;;;;;;4995538;28;1907;-68
2022/04/09 13:49:37;;;;;;;;;;;19.70;56.70;;;;;;5013000;28;835;-68
2022/04/09 13:52:03;;;;;;;;;;;19.70;56.70;;;;;;5012856;28;836;-69
2022/04/09 13:54:28;;;;;;;;;;;19.70;56.70;;;;;;5012848;28;1173;-68
2022/04/09 13:56:54;;;;;;;;;;;19.70;56.80;;;;;;5012630;28;1019;-68
2022/04/09 13:59:19;;;;;;;;;;;19.60;56.70;;;;;;5012798;28;748;-68
2022/04/09 14:01:45;;;;;;;;;;;19.70;56.80;;;;;;5012826;28;794;-68
2022/04/09 14:04:10;;;;;;;;;;;19.60;56.80;;;;;;5012620;28;1239;-68
2022/04/09 14:06:36;;;;;;;;;;;19.70;56.80;;;;;;5012699;28;1898;-68
2022/04/09 14:09:01;;;;;;;;;;;19.60;56.80;;;;;;5012824;28;785;-68
2022/04/09 14:11:27;;;;;;;;;;;19.60;56.80;;;;;;4995105;28;797;-67
2022/04/09 14:13:53;;;;;;;;;;;19.60;56.80;;;;;;5012728;28;1297;-67
2022/04/09 14:16:18;;;;;;;;;;;19.60;56.80;;;;;;5012606;28;961;-67
2022/04/09 14:18:44;;;;;;;;;;;19.60;56.80;;;;;;5013018;28;736;-67
2022/04/09 14:21:10;;;;;;;;;;;19.60;56.90;;;;;;5012682;28;1199;-67
2022/04/09 14:23:35;;;;;;;;;;;19.60;56.80;;;;;;4994971;28;1242;-69
2022/04/09 14:26:01;;;;;;;;;;;19.60;56.80;;;;;;5012433;28;1965;-69